createdAt,value
2019-04-04T00:00:07.310Z,6.86
2019-04-04T00:01:07.358Z,6.86
2019-04-04T00:02:07.044Z,6.84
2019-04-04T00:03:07.030Z,6.86
2019-04-04T00:04:07.076Z,6.82
2019-04-04T00:05:07.024Z,6.83
2019-04-04T00:06:07.045Z,6.84
2019-04-04T00:07:07.014Z,6.81
2019-04-04T00:08:07.042Z,6.8
2019-04-04T00:09:07.087Z,6.8
2019-04-04T00:10:07.044Z,6.82
2019-04-04T00:11:07.055Z,6.83
2019-04-04T00:12:08.925Z,6.83
2019-04-04T00:13:07.034Z,6.83
2019-04-04T00:14:07.012Z,6.86
2019-04-04T00:15:06.997Z,6.84
2019-04-04T00:16:07.045Z,6.86
2019-04-04T00:17:07.023Z,6.87
2019-04-04T00:18:07.055Z,6.87
2019-04-04T00:19:07.021Z,6.88
2019-04-04T00:20:07.080Z,6.88
2019-04-04T00:21:07.031Z,6.88
2019-04-04T00:22:07.252Z,6.88
2019-04-04T00:23:07.904Z,6.9
2019-04-04T00:24:09.947Z,6.88
2019-04-04T00:25:10.911Z,6.86
2019-04-04T00:26:07.006Z,6.87
2019-04-04T00:27:07.020Z,6.86
2019-04-04T00:28:07.003Z,6.86
2019-04-04T00:29:07.028Z,6.85
2019-04-04T00:30:07.019Z,6.83
2019-04-04T00:31:07.005Z,6.83
2019-04-04T00:32:07.040Z,6.82
2019-04-04T00:33:07.024Z,6.81
2019-04-04T00:34:06.991Z,6.78
2019-04-04T00:35:07.066Z,6.77
2019-04-04T00:36:06.992Z,6.78
2019-04-04T00:37:06.998Z,6.77
2019-04-04T00:38:07.843Z,6.79
2019-04-04T00:39:10.261Z,6.81
2019-04-04T00:40:06.981Z,6.79
2019-04-04T00:41:06.960Z,6.8
2019-04-04T00:42:07.009Z,6.82
2019-04-04T00:43:06.981Z,6.81
2019-04-04T00:44:07.091Z,6.81
2019-04-04T00:45:07.019Z,6.81
2019-04-04T00:46:06.972Z,6.83
2019-04-04T00:47:06.973Z,6.86
2019-04-04T00:48:06.995Z,6.86
2019-04-04T00:49:07.039Z,6.86
2019-04-04T00:50:07.087Z,6.87
2019-04-04T00:51:08.817Z,6.83
2019-04-04T00:52:11.205Z,6.78
2019-04-04T00:53:06.980Z,6.8
2019-04-04T00:54:06.992Z,6.81
2019-04-04T00:55:07.031Z,6.78
2019-04-04T00:56:06.972Z,6.82
2019-04-04T00:57:06.934Z,6.82
2019-04-04T00:58:06.965Z,6.83
2019-04-04T00:59:07.004Z,6.85
2019-04-04T01:00:07.005Z,6.86
2019-04-04T01:01:06.950Z,6.88
2019-04-04T01:02:07.054Z,6.87
2019-04-04T01:03:07.001Z,6.91
2019-04-04T01:04:06.961Z,6.89
2019-04-04T01:05:06.913Z,6.91
2019-04-04T01:06:07.023Z,6.91
2019-04-04T01:07:06.940Z,6.89
2019-04-04T01:08:07.896Z,6.91
2019-04-04T01:09:14.123Z,6.89
2019-04-04T01:10:06.996Z,6.89
2019-04-04T01:11:06.962Z,6.89
2019-04-04T01:12:06.947Z,6.87
2019-04-04T01:13:06.943Z,6.88
2019-04-04T01:14:06.921Z,6.89
2019-04-04T01:15:06.979Z,6.89
2019-04-04T01:16:06.912Z,6.91
2019-04-04T01:17:06.947Z,6.91
2019-04-04T01:18:07.900Z,6.91
2019-04-04T01:19:10.645Z,6.91
2019-04-04T01:20:06.940Z,6.89
2019-04-04T01:21:06.892Z,6.92
2019-04-04T01:22:06.931Z,6.9
2019-04-04T01:23:06.930Z,6.93
2019-04-04T01:24:07.091Z,6.92
2019-04-04T01:25:07.009Z,6.93
2019-04-04T01:26:06.941Z,6.92
2019-04-04T01:27:07.268Z,6.93
2019-04-04T01:28:08.936Z,6.94
2019-04-04T01:29:11.474Z,6.93
2019-04-04T01:30:07.038Z,6.94
2019-04-04T01:31:06.928Z,6.96
2019-04-04T01:32:06.919Z,6.99
2019-04-04T01:33:06.896Z,7.01
2019-04-04T01:34:06.905Z,7.01
2019-04-04T01:35:06.933Z,7.03
2019-04-04T01:36:06.966Z,7.04
2019-04-04T01:37:06.904Z,7.05
2019-04-04T01:38:06.901Z,7.02
2019-04-04T01:39:06.935Z,7.03
2019-04-04T01:40:06.881Z,7.03
2019-04-04T01:41:06.906Z,7.04
2019-04-04T01:42:08.195Z,7.01
2019-04-04T01:43:10.251Z,7.03
2019-04-04T01:44:06.897Z,7
2019-04-04T01:45:06.900Z,6.99
2019-04-04T01:46:06.883Z,6.98
2019-04-04T01:47:08.295Z,6.96
2019-04-04T01:48:06.998Z,6.97
2019-04-04T01:49:06.981Z,6.94
2019-04-04T01:50:06.890Z,6.95
2019-04-04T01:51:08.409Z,6.93
2019-04-04T01:52:06.900Z,6.95
2019-04-04T01:53:06.912Z,6.94
2019-04-04T01:54:06.913Z,6.92
2019-04-04T01:55:06.899Z,6.92
2019-04-04T01:56:07.418Z,6.92
2019-04-04T01:57:09.019Z,6.9
2019-04-04T01:58:11.012Z,6.89
2019-04-04T01:59:06.937Z,6.87
2019-04-04T02:00:06.889Z,6.87
2019-04-04T02:01:06.851Z,6.87
2019-04-04T02:02:06.865Z,6.86
2019-04-04T02:03:06.877Z,6.85
2019-04-04T02:04:06.873Z,6.87
2019-04-04T02:05:06.872Z,6.87
2019-04-04T02:06:06.906Z,6.86
2019-04-04T02:07:06.868Z,6.87
2019-04-04T02:08:06.900Z,6.83
2019-04-04T02:09:06.854Z,6.85
2019-04-04T02:10:06.896Z,6.86
2019-04-04T02:11:07.381Z,6.86
2019-04-04T02:12:08.792Z,6.88
2019-04-04T02:13:10.722Z,6.88
2019-04-04T02:14:06.842Z,6.88
2019-04-04T02:15:06.877Z,6.88
2019-04-04T02:16:06.924Z,6.88
2019-04-04T02:17:06.851Z,6.87
2019-04-04T02:18:06.829Z,6.9
2019-04-04T02:19:06.817Z,6.88
2019-04-04T02:20:06.878Z,6.88
2019-04-04T02:21:06.900Z,6.89
2019-04-04T02:22:06.915Z,6.91
2019-04-04T02:23:06.815Z,6.89
2019-04-04T02:24:06.856Z,6.92
2019-04-04T02:25:06.923Z,6.93
2019-04-04T02:26:06.919Z,6.93
2019-04-04T02:27:07.901Z,6.95
2019-04-04T02:28:09.769Z,6.94
2019-04-04T02:29:06.865Z,6.95
2019-04-04T02:30:06.913Z,6.94
2019-04-04T02:31:06.946Z,6.97
2019-04-04T02:32:06.908Z,6.95
2019-04-04T02:33:06.916Z,6.94
2019-04-04T02:34:08.117Z,6.96
2019-04-04T02:35:12.188Z,6.94
2019-04-04T02:36:06.848Z,6.95
2019-04-04T02:37:06.893Z,6.93
2019-04-04T02:38:06.808Z,6.93
2019-04-04T02:39:06.928Z,6.93
2019-04-04T02:40:10.529Z,6.93
2019-04-04T02:41:06.869Z,6.93
2019-04-04T02:42:06.847Z,6.93
2019-04-04T02:43:06.864Z,6.91
2019-04-04T02:44:06.834Z,6.9
2019-04-04T02:45:07.082Z,6.86
2019-04-04T02:46:12.625Z,6.86
2019-04-04T02:47:06.873Z,6.86
2019-04-04T02:48:06.861Z,6.87
2019-04-04T02:49:06.862Z,6.89
2019-04-04T02:50:06.833Z,6.9
2019-04-04T02:51:08.769Z,6.92
2019-04-04T02:52:06.902Z,6.9
2019-04-04T02:53:06.863Z,6.92
2019-04-04T02:54:06.976Z,6.93
2019-04-04T02:55:06.823Z,6.9
2019-04-04T02:56:06.979Z,6.87
2019-04-04T02:57:09.992Z,6.87
2019-04-04T02:58:06.826Z,6.87
2019-04-04T02:59:06.782Z,6.86
2019-04-04T03:00:06.830Z,6.86
2019-04-04T03:01:06.797Z,6.84
2019-04-04T03:02:06.876Z,6.85
2019-04-04T03:03:09.824Z,6.85
2019-04-04T03:04:06.841Z,6.85
2019-04-04T03:05:06.877Z,6.85
2019-04-04T03:06:06.826Z,6.89
2019-04-04T03:07:06.893Z,6.85
2019-04-04T03:08:06.827Z,6.83
2019-04-04T03:09:10.969Z,6.8
2019-04-04T03:10:06.833Z,6.73
2019-04-04T03:11:06.744Z,6.65
2019-04-04T03:12:06.777Z,6.65
2019-04-04T03:13:06.753Z,6.67
2019-04-04T03:14:06.856Z,6.68
2019-04-04T03:15:10.631Z,6.71
2019-04-04T03:16:07.039Z,6.74
2019-04-04T03:17:06.900Z,6.77
2019-04-04T03:18:06.831Z,6.75
2019-04-04T03:19:11.706Z,6.77
2019-04-04T03:20:06.797Z,6.75
2019-04-04T03:21:06.811Z,6.78
2019-04-04T03:22:06.844Z,6.79
2019-04-04T03:23:06.803Z,6.77
2019-04-04T03:24:07.666Z,6.81
2019-04-04T03:25:06.808Z,6.8
2019-04-04T03:26:06.772Z,6.83
2019-04-04T03:27:06.824Z,6.81
2019-04-04T03:28:06.817Z,6.82
2019-04-04T03:29:11.273Z,6.84
2019-04-04T03:30:18.037Z,6.83
2019-04-04T03:31:06.850Z,6.85
2019-04-04T03:32:17.937Z,6.86
2019-04-04T03:33:06.874Z,6.83
2019-04-04T03:34:13.828Z,6.85
2019-04-04T03:35:06.813Z,6.83
2019-04-04T03:36:06.834Z,6.85
2019-04-04T03:37:14.263Z,6.84
2019-04-04T03:38:06.769Z,6.86
2019-04-04T03:39:06.817Z,6.85
2019-04-04T03:40:06.830Z,6.82
2019-04-04T03:41:06.862Z,6.81
2019-04-04T03:42:08.696Z,6.82
2019-04-04T03:43:06.884Z,6.82
2019-04-04T03:44:06.791Z,6.81
2019-04-04T03:45:09.828Z,6.83
2019-04-04T03:46:06.733Z,6.83
2019-04-04T03:47:11.714Z,6.86
2019-04-04T03:48:06.715Z,6.86
2019-04-04T03:49:06.755Z,6.85
2019-04-04T03:50:06.747Z,6.83
2019-04-04T03:51:06.749Z,6.85
2019-04-04T03:52:11.908Z,6.85
2019-04-04T03:53:06.820Z,6.87
2019-04-04T03:54:06.844Z,6.87
2019-04-04T03:55:06.727Z,6.87
2019-04-04T03:56:06.805Z,6.87
2019-04-04T03:57:12.747Z,6.85
2019-04-04T03:58:07.556Z,6.83
2019-04-04T03:59:07.052Z,6.84
2019-04-04T04:00:08.093Z,6.81
2019-04-04T04:01:06.739Z,6.81
2019-04-04T04:02:06.727Z,6.79
2019-04-04T04:03:06.763Z,6.8
2019-04-04T04:04:06.712Z,6.8
2019-04-04T04:05:06.776Z,6.79
2019-04-04T04:06:10.482Z,6.78
2019-04-04T04:07:06.754Z,6.79
2019-04-04T04:08:06.735Z,6.79
2019-04-04T04:09:06.727Z,6.8
2019-04-04T04:10:06.693Z,6.79
2019-04-04T04:11:06.826Z,6.75
2019-04-04T04:12:11.691Z,6.74
2019-04-04T04:13:06.694Z,6.74
2019-04-04T04:14:06.713Z,6.73
2019-04-04T04:15:06.724Z,6.74
2019-04-04T04:16:06.729Z,6.73
2019-04-04T04:17:12.931Z,6.75
2019-04-04T04:18:06.707Z,6.75
2019-04-04T04:19:06.700Z,6.76
2019-04-04T04:20:06.728Z,6.75
2019-04-04T04:21:11.554Z,6.74
2019-04-04T04:22:06.710Z,6.74
2019-04-04T04:23:06.737Z,6.74
2019-04-04T04:24:06.685Z,6.75
2019-04-04T04:25:06.680Z,6.75
2019-04-04T04:26:10.420Z,6.75
2019-04-04T04:27:06.731Z,6.77
2019-04-04T04:28:06.725Z,6.74
2019-04-04T04:29:06.669Z,6.74
2019-04-04T04:30:08.147Z,6.75
2019-04-04T04:31:06.663Z,6.74
2019-04-04T04:32:06.771Z,6.74
2019-04-04T04:33:06.687Z,6.75
2019-04-04T04:34:07.902Z,6.75
2019-04-04T04:35:09.590Z,6.75
2019-04-04T04:36:16.904Z,6.74
2019-04-04T04:37:06.668Z,6.74
2019-04-04T04:38:06.715Z,6.74
2019-04-04T04:39:07.081Z,6.74
2019-04-04T04:40:06.661Z,6.74
2019-04-04T04:41:06.772Z,6.74
2019-04-04T04:42:07.690Z,6.74
2019-04-04T04:43:06.885Z,6.71
2019-04-04T04:44:07.097Z,6.69
2019-04-04T04:45:12.925Z,6.7
2019-04-04T04:46:06.774Z,6.71
2019-04-04T04:47:06.658Z,6.73
2019-04-04T04:48:06.664Z,6.73
2019-04-04T04:49:06.668Z,6.73
2019-04-04T04:50:10.384Z,6.74
2019-04-04T04:51:06.646Z,6.74
2019-04-04T04:52:06.641Z,6.74
2019-04-04T04:53:06.698Z,6.75
2019-04-04T04:54:06.635Z,6.74
2019-04-04T04:55:06.657Z,6.74
2019-04-04T04:56:06.686Z,6.76
2019-04-04T04:57:06.698Z,6.78
2019-04-04T04:58:11.569Z,6.76
2019-04-04T04:59:06.634Z,6.78
2019-04-04T05:00:06.690Z,6.77
2019-04-04T05:01:06.601Z,6.76
2019-04-04T05:02:06.634Z,6.76
2019-04-04T05:03:06.617Z,6.77
2019-04-04T05:04:06.660Z,6.77
2019-04-04T05:05:06.651Z,6.7
2019-04-04T05:06:06.740Z,6.71
2019-04-04T05:07:08.371Z,6.61
2019-04-04T05:08:10.945Z,6.57
2019-04-04T05:09:06.606Z,6.56
2019-04-04T05:10:06.638Z,6.58
2019-04-04T05:11:06.676Z,6.6
2019-04-04T05:12:06.605Z,6.56
2019-04-04T05:13:06.619Z,6.42
2019-04-04T05:14:06.608Z,6.28
2019-04-04T05:15:06.787Z,6.2
2019-04-04T05:16:09.255Z,6.18
2019-04-04T05:17:10.918Z,6.22
2019-04-04T05:18:06.825Z,6.25
2019-04-04T05:19:06.599Z,6.27
2019-04-04T05:20:06.609Z,6.23
2019-04-04T05:21:06.715Z,6.26
2019-04-04T05:22:10.085Z,6.3
2019-04-04T05:23:06.648Z,6.22
2019-04-04T05:24:06.638Z,6.22
2019-04-04T05:25:09.540Z,6.18
2019-04-04T05:26:10.174Z,6.13
2019-04-04T05:27:07.045Z,6.15
2019-04-04T05:28:11.610Z,6.08
2019-04-04T05:29:06.703Z,6.11
2019-04-04T05:30:09.092Z,6.12
2019-04-04T05:31:06.704Z,6.11
2019-04-04T05:32:06.664Z,6.08
2019-04-04T05:33:06.624Z,6.09
2019-04-04T05:34:06.788Z,6.13
2019-04-04T05:35:06.713Z,6.15
2019-04-04T05:36:06.632Z,6.16
2019-04-04T05:37:08.589Z,6.16
2019-04-04T05:38:12.415Z,6.17
2019-04-04T05:39:06.754Z,6.09
2019-04-04T05:40:06.661Z,6
2019-04-04T05:41:06.658Z,6
2019-04-04T05:42:06.606Z,6.01
2019-04-04T05:43:06.650Z,6.01
2019-04-04T05:44:10.623Z,6.08
2019-04-04T05:45:06.614Z,6.07
2019-04-04T05:46:06.596Z,6.06
2019-04-04T05:47:06.711Z,6.05
2019-04-04T05:48:06.605Z,6.08
2019-04-04T05:49:08.919Z,6.1
2019-04-04T05:50:06.626Z,6.16
2019-04-04T05:51:06.655Z,6.15
2019-04-04T05:52:09.683Z,6.19
2019-04-04T05:53:06.543Z,6.19
2019-04-04T05:54:08.758Z,6.24
2019-04-04T05:55:11.286Z,6.24
2019-04-04T05:56:07.055Z,6.2
2019-04-04T05:57:06.592Z,6.21
2019-04-04T05:58:06.606Z,6.22
2019-04-04T05:59:06.598Z,6.22
2019-04-04T06:00:06.657Z,6.21
2019-04-04T06:01:06.616Z,6.24
2019-04-04T06:02:06.645Z,6.17
2019-04-04T06:03:06.621Z,6.14
2019-04-04T06:04:06.788Z,6.15
2019-04-04T06:05:06.631Z,6.04
2019-04-04T06:06:06.723Z,6.01
2019-04-04T06:07:06.614Z,6.06
2019-04-04T06:08:09.106Z,6.07
2019-04-04T06:09:06.591Z,6.1
2019-04-04T06:10:06.517Z,6.11
2019-04-04T06:11:08.722Z,6.15
2019-04-04T06:12:06.546Z,6.16
2019-04-04T06:13:06.535Z,6.17
2019-04-04T06:14:06.554Z,6.17
2019-04-04T06:15:06.533Z,6.16
2019-04-04T06:16:06.578Z,6.13
2019-04-04T06:17:08.164Z,6.15
2019-04-04T06:18:06.672Z,6.16
2019-04-04T06:19:06.578Z,6.11
2019-04-04T06:20:06.524Z,6.06
2019-04-04T06:21:06.519Z,6.05
2019-04-04T06:22:06.643Z,6.05
2019-04-04T06:23:06.633Z,6.13
2019-04-04T06:24:06.512Z,6.12
2019-04-04T06:25:06.737Z,6.12
2019-04-04T06:26:08.135Z,6.16
2019-04-04T06:27:10.005Z,6.11
2019-04-04T06:28:06.594Z,6.06
2019-04-04T06:29:06.587Z,6.05
2019-04-04T06:30:06.547Z,6.01
2019-04-04T06:31:07.637Z,5.96
2019-04-04T06:32:06.504Z,5.98
2019-04-04T06:33:06.531Z,5.93
2019-04-04T06:34:11.161Z,5.93
2019-04-04T06:35:08.374Z,5.97
2019-04-04T06:36:06.587Z,6
2019-04-04T06:37:06.506Z,6.04
2019-04-04T06:38:06.596Z,6.05
2019-04-04T06:39:06.567Z,6.04
2019-04-04T06:40:06.617Z,5.98
2019-04-04T06:41:06.555Z,6.03
2019-04-04T06:42:06.548Z,6.03
2019-04-04T06:43:12.389Z,6.04
2019-04-04T06:44:06.520Z,6.11
2019-04-04T06:45:06.470Z,6.1
2019-04-04T06:46:06.559Z,6.05
2019-04-04T06:47:06.511Z,6.07
2019-04-04T06:48:06.463Z,6.09
2019-04-04T06:49:06.537Z,6.1
2019-04-04T06:50:08.995Z,6.12
2019-04-04T06:51:06.487Z,6.17
2019-04-04T06:52:09.813Z,6.2
2019-04-04T06:53:06.501Z,6.18
2019-04-04T06:54:06.579Z,6.15
2019-04-04T06:55:06.508Z,6.1
2019-04-04T06:56:06.555Z,6.1
2019-04-04T06:57:06.511Z,6.14
2019-04-04T06:58:10.066Z,6.16
2019-04-04T06:59:06.521Z,6.07
2019-04-04T07:00:06.511Z,5.99
2019-04-04T07:01:06.492Z,6.06
2019-04-04T07:02:06.607Z,6.08
2019-04-04T07:03:06.460Z,6.09
2019-04-04T07:04:06.511Z,6.14
2019-04-04T07:05:11.114Z,6.16
2019-04-04T07:06:11.138Z,6.17
2019-04-04T07:07:06.583Z,6.17
2019-04-04T07:08:06.482Z,6.17
2019-04-04T07:09:06.437Z,6.17
2019-04-04T07:10:07.766Z,6.17
2019-04-04T07:11:22.044Z,6.16
2019-04-04T07:12:07.541Z,6.17
2019-04-04T07:13:28.501Z,6.17
2019-04-04T07:14:06.607Z,6.2
2019-04-04T07:15:06.676Z,6.13
2019-04-04T07:16:08.600Z,6.15
2019-04-04T07:17:10.190Z,6.14
2019-04-04T07:18:06.461Z,6.15
2019-04-04T07:19:08.631Z,6.16
2019-04-04T07:20:06.426Z,6.17
2019-04-04T07:21:06.529Z,6.19
2019-04-04T07:22:06.463Z,6.19
2019-04-04T07:23:06.418Z,6.21
2019-04-04T07:24:06.500Z,6.23
2019-04-04T07:25:07.223Z,6.2
2019-04-04T07:26:06.554Z,6.21
2019-04-04T07:27:06.490Z,6.17
2019-04-04T07:28:06.453Z,6.21
2019-04-04T07:29:06.523Z,6.23
2019-04-04T07:30:06.429Z,6.24
2019-04-04T07:31:06.446Z,6.25
2019-04-04T07:32:10.442Z,6.22
2019-04-04T07:33:06.468Z,6.23
2019-04-04T07:34:06.425Z,6.21
2019-04-04T07:35:06.454Z,6.23
2019-04-04T07:36:06.465Z,6.2
2019-04-04T07:37:06.420Z,6.09
2019-04-04T07:38:06.492Z,6.03
2019-04-04T07:39:06.498Z,5.95
2019-04-04T07:40:06.443Z,5.91
2019-04-04T07:41:09.402Z,5.91
2019-04-04T07:42:06.480Z,5.93
2019-04-04T07:43:09.251Z,5.97
2019-04-04T07:44:06.455Z,5.92
2019-04-04T07:45:07.346Z,5.94
2019-04-04T07:46:17.463Z,5.94
2019-04-04T07:47:06.490Z,5.92
2019-04-04T07:48:06.400Z,5.83
2019-04-04T07:49:06.376Z,5.83
2019-04-04T07:50:06.414Z,5.82
2019-04-04T07:51:06.419Z,5.84
2019-04-04T07:52:06.425Z,5.75
2019-04-04T07:53:06.419Z,5.74
2019-04-04T07:54:08.624Z,5.67
2019-04-04T07:55:11.234Z,5.68
2019-04-04T07:56:06.430Z,5.72
2019-04-04T07:57:07.385Z,5.69
2019-04-04T07:58:06.364Z,5.66
2019-04-04T07:59:06.371Z,5.69
2019-04-04T08:00:06.378Z,5.66
2019-04-04T08:01:06.362Z,5.66
2019-04-04T08:02:06.389Z,5.67
2019-04-04T08:03:07.756Z,5.72
2019-04-04T08:04:07.144Z,5.64
2019-04-04T08:05:06.443Z,5.62
2019-04-04T08:06:06.463Z,5.6
2019-04-04T08:07:06.373Z,5.56
2019-04-04T08:08:06.384Z,5.57
2019-04-04T08:09:06.391Z,5.5
2019-04-04T08:10:06.425Z,5.52
2019-04-04T08:11:06.432Z,5.5
2019-04-04T08:12:06.357Z,5.55
2019-04-04T08:13:06.344Z,5.56
2019-04-04T08:14:06.382Z,5.53
2019-04-04T08:15:06.351Z,5.46
2019-04-04T08:16:06.369Z,5.44
2019-04-04T08:17:06.343Z,5.39
2019-04-04T08:18:06.614Z,5.39
2019-04-04T08:19:06.740Z,5.37
2019-04-04T08:20:06.368Z,5.37
2019-04-04T08:21:06.425Z,5.32
2019-04-04T08:22:06.636Z,5.29
2019-04-04T08:23:06.420Z,5.29
2019-04-04T08:24:06.380Z,5.33
2019-04-04T08:25:06.325Z,5.25
2019-04-04T08:26:06.396Z,5.18
2019-04-04T08:27:06.411Z,5.13
2019-04-04T08:28:06.340Z,5.14
2019-04-04T08:29:06.377Z,5.21
2019-04-04T08:30:06.390Z,5.2
2019-04-04T08:31:06.369Z,5.18
2019-04-04T08:32:06.376Z,5.12
2019-04-04T08:33:06.343Z,5.17
2019-04-04T08:34:06.357Z,5.09
2019-04-04T08:35:06.382Z,5.09
2019-04-04T08:36:07.223Z,5.05
2019-04-04T08:37:06.313Z,5.1
2019-04-04T08:38:06.382Z,5.15
2019-04-04T08:39:06.329Z,5.12
2019-04-04T08:40:06.392Z,5.1
2019-04-04T08:41:06.365Z,5.1
2019-04-04T08:42:06.394Z,5.11
2019-04-04T08:43:06.365Z,5.06
2019-04-04T08:44:06.310Z,5.1
2019-04-04T08:45:07.341Z,5.14
2019-04-04T08:46:06.338Z,5.15
2019-04-04T08:47:06.281Z,5.16
2019-04-04T08:48:06.338Z,5.17
2019-04-04T08:49:06.290Z,5.12
2019-04-04T08:50:06.324Z,5.13
2019-04-04T08:51:06.286Z,5.07
2019-04-04T08:52:21.230Z,5.12
2019-04-04T08:53:06.347Z,5.11
2019-04-04T08:54:06.329Z,5.1
2019-04-04T08:55:06.297Z,5.13
2019-04-04T08:56:06.337Z,5.17
2019-04-04T08:57:06.295Z,5.13
2019-04-04T08:58:06.363Z,5.07
2019-04-04T08:59:06.271Z,5.05
2019-04-04T09:00:06.365Z,5.01
2019-04-04T09:01:06.342Z,4.99
2019-04-04T09:02:06.280Z,5.03
2019-04-04T09:03:06.253Z,5.02
2019-04-04T09:04:06.253Z,5.02
2019-04-04T09:05:13.078Z,5.07
2019-04-04T09:06:06.386Z,5
2019-04-04T09:07:08.828Z,4.96
2019-04-04T09:08:06.266Z,5.01
2019-04-04T09:09:06.303Z,5.02
2019-04-04T09:10:06.323Z,4.98
2019-04-04T09:11:06.348Z,4.93
2019-04-04T09:12:06.279Z,4.87
2019-04-04T09:13:06.325Z,4.93
2019-04-04T09:14:06.310Z,4.96
2019-04-04T09:15:06.284Z,4.95
2019-04-04T09:16:06.322Z,4.94
2019-04-04T09:17:06.256Z,4.94
2019-04-04T09:18:06.253Z,4.95
2019-04-04T09:19:06.263Z,4.98
2019-04-04T09:20:10.165Z,4.95
2019-04-04T09:21:06.350Z,4.95
2019-04-04T09:22:06.367Z,5
2019-04-04T09:23:06.374Z,5.02
2019-04-04T09:24:06.287Z,5.07
2019-04-04T09:25:06.279Z,5.03
2019-04-04T09:26:06.786Z,5.02
2019-04-04T09:27:06.225Z,5.07
2019-04-04T09:28:06.324Z,5.04
2019-04-04T09:29:06.258Z,5.01
2019-04-04T09:30:06.287Z,4.99
2019-04-04T09:31:06.301Z,4.99
2019-04-04T09:32:06.265Z,4.99
2019-04-04T09:33:06.282Z,4.95
2019-04-04T09:34:06.262Z,5.02
2019-04-04T09:35:06.271Z,5.02
2019-04-04T09:36:06.288Z,5.05
2019-04-04T09:37:09.202Z,5.07
2019-04-04T09:38:06.223Z,5.01
2019-04-04T09:39:06.241Z,5
2019-04-04T09:40:06.263Z,5.03
2019-04-04T09:41:06.229Z,5.09
2019-04-04T09:42:06.216Z,5.09
2019-04-04T09:43:06.216Z,5.18
2019-04-04T09:44:06.754Z,5.19
2019-04-04T09:45:06.324Z,5.23
2019-04-04T09:46:06.285Z,5.16
2019-04-04T09:47:06.335Z,5.22
2019-04-04T09:48:06.202Z,5.22
2019-04-04T09:49:06.208Z,5.25
2019-04-04T09:50:07.673Z,5.27
2019-04-04T09:51:07.316Z,5.32
2019-04-04T09:52:06.256Z,5.33
2019-04-04T09:53:06.227Z,5.35
2019-04-04T09:54:06.213Z,5.37
2019-04-04T09:55:06.182Z,5.3
2019-04-04T09:56:06.219Z,5.24
2019-04-04T09:57:06.216Z,5.32
2019-04-04T09:58:06.231Z,5.34
2019-04-04T09:59:06.213Z,5.31
2019-04-04T10:00:06.180Z,5.3
2019-04-04T10:01:07.146Z,5.33
2019-04-04T10:02:06.207Z,5.38
2019-04-04T10:03:06.252Z,5.33
2019-04-04T10:04:06.160Z,5.36
2019-04-04T10:05:07.078Z,5.32
2019-04-04T10:06:06.163Z,5.37
2019-04-04T10:07:06.442Z,5.45
2019-04-04T10:08:06.483Z,5.51
2019-04-04T10:09:17.287Z,5.55
2019-04-04T10:10:06.259Z,5.55
2019-04-04T10:11:06.127Z,5.57
2019-04-04T10:12:06.179Z,5.61
2019-04-04T10:13:06.160Z,5.54
2019-04-04T10:14:06.153Z,5.48
2019-04-04T10:15:06.204Z,5.39
2019-04-04T10:16:06.204Z,5.42
2019-04-04T10:17:06.206Z,5.46
2019-04-04T10:18:06.163Z,5.48
2019-04-04T10:19:06.203Z,5.53
2019-04-04T10:20:06.129Z,5.56
2019-04-04T10:21:13.107Z,5.61
2019-04-04T10:22:06.162Z,5.62
2019-04-04T10:23:06.263Z,5.62
2019-04-04T10:24:06.159Z,5.67
2019-04-04T10:25:06.261Z,5.67
2019-04-04T10:26:06.124Z,5.66
2019-04-04T10:27:06.185Z,5.66
2019-04-04T10:28:06.123Z,5.68
2019-04-04T10:29:06.343Z,5.68
2019-04-04T10:30:06.528Z,5.68
2019-04-04T10:31:06.176Z,5.69
2019-04-04T10:32:06.154Z,5.66
2019-04-04T10:33:06.102Z,5.64
2019-04-04T10:34:06.197Z,5.63
2019-04-04T10:35:06.133Z,5.56
2019-04-04T10:36:06.131Z,5.63
2019-04-04T10:37:06.138Z,5.56
2019-04-04T10:38:06.151Z,5.48
2019-04-04T10:39:06.151Z,5.44
2019-04-04T10:40:06.184Z,5.34
2019-04-04T10:41:06.143Z,5.32
2019-04-04T10:42:06.323Z,5.38
2019-04-04T10:43:06.104Z,5.41
2019-04-04T10:44:06.118Z,5.43
2019-04-04T10:45:06.195Z,5.41
2019-04-04T10:46:06.153Z,5.42
2019-04-04T10:47:06.101Z,5.38
2019-04-04T10:48:06.126Z,5.43
2019-04-04T10:49:08.675Z,5.42
2019-04-04T10:50:06.161Z,5.32
2019-04-04T10:51:06.130Z,5.41
2019-04-04T10:52:06.134Z,5.43
2019-04-04T10:53:06.246Z,5.42
2019-04-04T10:54:06.098Z,5.45
2019-04-04T10:55:06.130Z,5.39
2019-04-04T10:56:06.146Z,5.43
2019-04-04T10:57:06.292Z,5.47
2019-04-04T10:58:06.208Z,5.48
2019-04-04T10:59:06.290Z,5.48
2019-04-04T11:00:06.146Z,5.47
2019-04-04T11:01:06.205Z,5.41
2019-04-04T11:02:06.144Z,5.42
2019-04-04T11:03:06.133Z,5.35
2019-04-04T11:04:06.134Z,5.46
2019-04-04T11:05:06.162Z,5.5
2019-04-04T11:06:06.142Z,5.42
2019-04-04T11:07:06.113Z,5.47
2019-04-04T11:08:07.561Z,5.35
2019-04-04T11:09:06.105Z,5.32
2019-04-04T11:10:06.104Z,5.4
2019-04-04T11:11:06.088Z,5.46
2019-04-04T11:12:06.112Z,5.46
2019-04-04T11:13:06.611Z,5.44
2019-04-04T11:14:06.173Z,5.47
2019-04-04T11:15:06.070Z,5.48
2019-04-04T11:16:06.150Z,5.5
2019-04-04T11:17:06.068Z,5.43
2019-04-04T11:18:06.097Z,5.41
2019-04-04T11:19:06.092Z,5.31
2019-04-04T11:20:06.096Z,5.31
2019-04-04T11:21:06.048Z,5.36
2019-04-04T11:22:06.067Z,5.38
2019-04-04T11:23:06.103Z,5.45
2019-04-04T11:24:06.115Z,5.52
2019-04-04T11:25:06.111Z,5.58
2019-04-04T11:26:06.079Z,5.6
2019-04-04T11:27:06.539Z,5.59
2019-04-04T11:28:06.069Z,5.58
2019-04-04T11:29:06.052Z,5.65
2019-04-04T11:30:06.081Z,5.57
2019-04-04T11:31:06.060Z,5.51
2019-04-04T11:32:06.087Z,5.59
2019-04-04T11:33:06.092Z,5.63
2019-04-04T11:34:06.112Z,5.7
2019-04-04T11:35:06.478Z,5.7
2019-04-04T11:36:06.043Z,5.77
2019-04-04T11:37:06.081Z,5.69
2019-04-04T11:38:06.056Z,5.69
2019-04-04T11:39:06.089Z,5.71
2019-04-04T11:40:06.064Z,5.7
2019-04-04T11:41:06.052Z,5.67
2019-04-04T11:42:06.057Z,5.71
2019-04-04T11:43:06.027Z,5.72
2019-04-04T11:44:06.013Z,5.7
2019-04-04T11:45:06.062Z,5.72
2019-04-04T11:46:06.056Z,5.72
2019-04-04T11:47:06.089Z,5.7
2019-04-04T11:48:06.103Z,5.68
2019-04-04T11:49:06.031Z,5.71
2019-04-04T11:50:06.074Z,5.79
2019-04-04T11:51:06.187Z,5.75
2019-04-04T11:52:06.021Z,5.72
2019-04-04T11:53:06.042Z,5.63
2019-04-04T11:54:06.010Z,5.65
2019-04-04T11:55:06.220Z,5.61
2019-04-04T11:56:06.203Z,5.59
2019-04-04T11:57:06.263Z,5.57
2019-04-04T11:58:06.026Z,5.63
2019-04-04T11:59:08.580Z,5.59
2019-04-04T12:00:06.024Z,5.58
2019-04-04T12:01:06.059Z,5.55
2019-04-04T12:02:06.128Z,5.56
2019-04-04T12:03:05.996Z,5.55
2019-04-04T12:04:06.086Z,5.49
2019-04-04T12:05:06.032Z,5.53
2019-04-04T12:06:06.061Z,5.62
2019-04-04T12:07:06.071Z,5.66
2019-04-04T12:08:06.046Z,5.62
2019-04-04T12:09:06.012Z,5.64
2019-04-04T12:10:08.826Z,5.65
2019-04-04T12:11:05.993Z,5.69
2019-04-04T12:12:06.002Z,5.7
2019-04-04T12:13:06.030Z,5.74
2019-04-04T12:14:06.074Z,5.76
2019-04-04T12:15:06.020Z,5.69
2019-04-04T12:16:06.026Z,5.62
2019-04-04T12:17:06.045Z,5.66
2019-04-04T12:18:06.922Z,5.7
2019-04-04T12:19:06.141Z,5.68
2019-04-04T12:20:06.037Z,5.73
2019-04-04T12:21:06.051Z,5.71
2019-04-04T12:22:05.999Z,5.74
2019-04-04T12:23:06.047Z,5.75
2019-04-04T12:24:06.031Z,5.74
2019-04-04T12:25:05.998Z,5.69
2019-04-04T12:26:06.897Z,5.69
2019-04-04T12:27:05.949Z,5.72
2019-04-04T12:28:06.009Z,5.76
2019-04-04T12:29:05.970Z,5.73
2019-04-04T12:30:06.016Z,5.76
2019-04-04T12:31:05.951Z,5.72
2019-04-04T12:32:05.946Z,5.76
2019-04-04T12:33:05.958Z,5.76
2019-04-04T12:34:05.942Z,5.8
2019-04-04T12:35:06.949Z,5.82
2019-04-04T12:36:07.416Z,5.83
2019-04-04T12:37:05.973Z,5.78
2019-04-04T12:38:05.943Z,5.8
2019-04-04T12:39:05.990Z,5.8
2019-04-04T12:40:21.682Z,5.82
2019-04-04T12:41:05.968Z,5.83
2019-04-04T12:42:05.916Z,5.78
2019-04-04T12:43:06.011Z,5.75
2019-04-04T12:44:05.920Z,5.76
2019-04-04T12:45:06.330Z,5.83
2019-04-04T12:46:07.357Z,5.77
2019-04-04T12:47:05.931Z,5.77
2019-04-04T12:48:09.494Z,5.75
2019-04-04T12:49:05.997Z,5.8
2019-04-04T12:50:06.069Z,5.8
2019-04-04T12:51:06.032Z,5.79
2019-04-04T12:52:07.156Z,5.75
2019-04-04T12:53:05.926Z,5.76
2019-04-04T12:54:05.971Z,5.78
2019-04-04T12:55:06.852Z,5.81
2019-04-04T12:56:05.945Z,5.86
2019-04-04T12:57:05.915Z,5.87
2019-04-04T12:58:05.950Z,5.91
2019-04-04T12:59:05.925Z,5.93
2019-04-04T13:00:05.913Z,5.95
2019-04-04T13:01:05.941Z,5.86
2019-04-04T13:02:05.927Z,5.82
2019-04-04T13:03:05.902Z,5.82
2019-04-04T13:04:05.894Z,5.85
2019-04-04T13:05:05.933Z,5.87
2019-04-04T13:06:05.909Z,5.9
2019-04-04T13:07:05.931Z,5.91
2019-04-04T13:08:05.912Z,5.89
2019-04-04T13:09:06.453Z,5.9
2019-04-04T13:10:12.654Z,5.92
2019-04-04T13:11:07.121Z,5.97
2019-04-04T13:12:05.887Z,5.97
2019-04-04T13:13:05.930Z,6
2019-04-04T13:14:05.941Z,5.99
2019-04-04T13:15:05.909Z,6.01
2019-04-04T13:16:05.969Z,5.97
2019-04-04T13:17:05.923Z,5.95
2019-04-04T13:18:05.918Z,5.94
2019-04-04T13:19:05.910Z,5.92
2019-04-04T13:20:05.918Z,5.9
2019-04-04T13:21:06.026Z,5.96